Time;durP1;ratioP1;P1;durP2;ratioP2;P2;SDS_P1;SDS_P2;PMS_P1;PMS_P2;Temp;Humidity;BMP_temperature;BMP_pressure;BME280_temperature;BME280_humidity;BME280_pressure;Samples;Min_cycle;Max_cycle;Signal;HPM_P1;HPM_P2
2021/08/21 00:00:51;;;;;;;;;16.00;12.50;;;;;21.19;100.00;101431.66;5121166;27;45287;-70
2021/08/21 00:03:17;;;;;;;;;13.00;12.25;;;;;21.21;100.00;101445.72;5120358;27;45286;-68
2021/08/21 00:09:04;;;;;;;;;13.00;13.00;;;;;21.13;100.00;101432.81;5120262;27;45349;-69
2021/08/21 00:11:29;;;;;;;;;13.00;12.25;;;;;21.15;100.00;101452.19;5120594;27;45254;-69
2021/08/21 00:13:55;;;;;;;;;13.50;12.75;;;;;21.14;100.00;101446.94;5121013;27;45870;-69
2021/08/21 00:16:20;;;;;;;;;14.25;13.25;;;;;20.93;100.00;101411.63;5120863;27;45445;-69
2021/08/21 00:18:45;;;;;;;;;15.00;13.00;;;;;21.07;100.00;101436.63;5120391;27;46116;-69
2021/08/21 00:21:13;;;;;;;;;12.00;12.00;;;;;21.04;100.00;101438.53;5120321;27;45247;-68
2021/08/21 00:23:40;;;;;;;;;10.50;10.00;;;;;21.05;100.00;101438.47;5120524;27;45357;-69
2021/08/21 00:26:06;;;;;;;;;11.75;11.75;;;;;21.06;100.00;101440.22;5120755;27;45358;-69
2021/08/21 00:28:31;;;;;;;;;12.25;11.50;;;;;20.98;100.00;101415.78;5120313;27;45382;-69
2021/08/21 00:30:56;;;;;;;;;14.50;11.50;;;;;21.07;100.00;101430.44;5120073;27;45338;-68
2021/08/21 00:33:23;;;;;;;;;9.50;9.50;;;;;21.03;100.00;101432.34;5119946;27;45306;-69
2021/08/21 00:39:10;;;;;;;;;12.25;12.25;;;;;20.83;100.00;101387.31;5120045;27;45493;-69
2021/08/21 00:41:36;;;;;;;;;11.75;11.00;;;;;21.03;100.00;101413.78;5120334;27;45401;-69
2021/08/21 00:44:05;;;;;;;;;11.75;11.00;;;;;21.07;100.00;101423.34;5120534;27;45256;-69
2021/08/21 00:46:30;;;;;;;;;11.00;11.00;;;;;21.00;100.00;101405.94;5120665;27;45306;-68
2021/08/21 00:48:55;;;;;;;;;10.75;10.75;;;;;21.04;100.00;101406.66;5120152;27;45297;-70
2021/08/21 00:51:21;;;;;;;;;12.00;11.00;;;;;21.07;100.00;101418.03;5120165;27;45370;-69
2021/08/21 00:53:46;;;;;;;;;14.50;13.25;;;;;21.04;100.00;101415.50;5120244;27;45315;-69
2021/08/21 00:56:11;;;;;;;;;11.50;11.00;;;;;20.88;100.00;101385.31;5120182;27;45279;-69
2021/08/21 00:58:37;;;;;;;;;12.00;10.00;;;;;20.99;100.00;101404.22;5120020;27;45258;-70
2021/08/21 01:01:02;;;;;;;;;12.50;12.00;;;;;20.98;100.00;101410.47;5119826;27;45206;-69
2021/08/21 01:03:28;;;;;;;;;10.25;9.25;;;;;20.97;100.00;101414.06;5120052;27;45394;-68
2021/08/21 01:09:15;;;;;;;;;12.50;11.25;;;;;20.87;100.00;101406.63;5119115;27;45746;-69
2021/08/21 01:11:40;;;;;;;;;10.25;10.00;;;;;20.75;100.00;101390.31;5119845;27;45220;-69
2021/08/21 01:14:05;;;;;;;;;10.50;9.75;;;;;20.75;100.00;101400.06;5119770;27;45247;-69
2021/08/21 01:16:31;;;;;;;;;10.00;10.00;;;;;20.77;100.00;101408.81;5120171;27;45328;-69
2021/08/21 01:18:58;;;;;;;;;10.00;9.75;;;;;20.72;100.00;101405.50;5119701;27;45344;-68
2021/08/21 01:21:23;;;;;;;;;10.00;9.25;;;;;20.76;100.00;101415.06;5119644;27;45426;-68
2021/08/21 01:23:49;;;;;;;;;10.25;9.75;;;;;20.71;100.00;101409.97;5119878;27;45418;-69
2021/08/21 01:26:14;;;;;;;;;11.00;10.00;;;;;20.75;100.00;101405.38;5119696;27;45534;-69
2021/08/21 01:28:40;;;;;;;;;9.75;8.75;;;;;20.76;100.00;101407.09;5119190;27;46724;-69
2021/08/21 01:31:07;;;;;;;;;11.25;10.25;;;;;20.81;100.00;101402.44;5119186;27;45306;-69
2021/08/21 01:33:37;;;;;;;;;11.00;10.75;;;;;20.75;100.00;101392.97;5119383;27;45336;-69
2021/08/21 01:39:24;;;;;;;;;9.00;8.25;;;;;20.69;100.00;101390.59;5119170;27;45851;-68
2021/08/21 01:41:49;;;;;;;;;10.00;9.00;;;;;20.75;100.00;101405.38;5119103;27;45312;-68
2021/08/21 01:44:17;;;;;;;;;9.50;8.50;;;;;20.75;100.00;101410.69;5118898;27;45206;-69
2021/08/21 01:46:47;;;;;;;;;8.00;8.00;;;;;20.71;100.00;101403.78;5119346;27;45425;-69
2021/08/21 01:49:15;;;;;;;;;9.75;8.75;;;;;20.71;100.00;101406.44;5118948;27;46974;-69
2021/08/21 01:51:47;;;;;;;;;9.00;9.00;;;;;20.69;100.00;101400.34;5118946;27;45230;-69
2021/08/21 01:54:17;;;;;;;;;8.00;7.50;;;;;20.66;100.00;101395.19;5119159;27;45307;-69
2021/08/21 01:56:57;;;;;;;;;8.00;7.50;;;;;20.62;100.00;101390.97;5119135;27;45254;-69
2021/08/21 01:59:24;;;;;;;;;8.50;8.00;;;;;20.60;100.00;101399.00;5118867;27;46158;-69
2021/08/21 02:01:49;;;;;;;;;8.00;7.75;;;;;20.52;100.00;101387.84;5119165;27;45209;-69
2021/08/21 02:04:15;;;;;;;;;8.25;7.00;;;;;20.54;100.00;101387.78;5119268;27;45207;-68
2021/08/21 02:06:42;;;;;;;;;7.00;7.00;;;;;20.51;100.00;101386.13;5119351;27;45351;-69
2021/08/21 02:09:08;;;;;;;;;6.75;6.00;;;;;20.49;100.00;101391.50;5118506;27;47349;-69
2021/08/21 02:11:33;;;;;;;;;5.50;5.50;;;;;20.47;100.00;101379.25;5118640;27;45397;-69
2021/08/21 02:13:58;;;;;;;;;7.50;7.00;;;;;20.33;100.00;101358.59;5118852;27;45368;-69
2021/08/21 02:16:24;;;;;;;;;6.00;6.00;;;;;20.38;100.00;101369.88;5118987;27;45311;-68
2021/08/21 02:18:49;;;;;;;;;6.00;6.00;;;;;20.38;100.00;101377.84;5118456;27;46129;-70
2021/08/21 02:24:36;;;;;;;;;7.50;6.75;;;;;20.36;100.00;101386.78;5118607;27;45233;-69
2021/08/21 02:27:03;;;;;;;;;6.00;5.75;;;;;20.28;100.00;101375.66;5118816;27;45431;-69
2021/08/21 02:29:30;;;;;;;;;6.50;6.00;;;;;20.32;100.00;101390.50;5118377;27;47107;-69
2021/08/21 02:31:55;;;;;;;;;6.00;6.00;;;;;20.27;100.00;101381.88;5118529;27;45454;-70
2021/08/21 02:34:26;;;;;;;;;7.75;7.00;;;;;20.27;100.00;101384.53;5118910;27;45410;-70
2021/08/21 02:36:52;;;;;;;;;7.75;6.50;;;;;20.17;100.00;101370.84;5118696;27;45207;-69
2021/08/21 02:39:18;;;;;;;;;7.50;5.25;;;;;20.23;100.00;101385.59;5118162;27;46903;-69
2021/08/21 02:41:43;;;;;;;;;5.75;5.00;;;;;20.18;100.00;101380.50;5118223;27;45200;-69
2021/08/21 02:44:09;;;;;;;;;6.00;5.00;;;;;20.23;100.00;101381.16;5118414;27;45321;-70
2021/08/21 02:46:34;;;;;;;;;3.50;3.50;;;;;20.21;100.00;101371.56;5118548;27;45454;-69
2021/08/21 02:48:59;;;;;;;;;6.00;5.00;;;;;20.21;100.00;101376.88;5118366;27;45264;-69
2021/08/21 02:54:46;;;;;;;;;5.25;5.00;;;;;20.21;100.00;101374.22;5118705;27;45247;-69
2021/08/21 02:57:12;;;;;;;;;5.50;5.50;;;;;20.16;100.00;101363.81;5122309;27;45187;-69
2021/08/21 02:59:37;;;;;;;;;6.00;5.00;;;;;20.22;100.00;101375.94;5121857;27;45337;-70
2021/08/21 03:02:02;;;;;;;;;5.00;5.00;;;;;20.21;100.00;101367.13;5122033;27;45302;-69
2021/08/21 03:04:28;;;;;;;;;6.50;5.25;;;;;20.25;100.00;101374.00;5122158;27;45284;-69
2021/08/21 03:06:53;;;;;;;;;5.00;4.75;;;;;20.24;100.00;101366.13;5103307;27;45462;-69
2021/08/21 03:09:18;;;;;;;;;6.00;6.00;;;;;20.18;100.00;101359.31;5121552;27;45474;-70
2021/08/21 03:11:44;;;;;;;;;6.00;5.00;;;;;20.24;100.00;101366.97;5121762;27;45389;-70
2021/08/21 03:14:09;;;;;;;;;5.00;5.00;;;;;20.24;100.00;101366.13;5121635;27;45279;-69
2021/08/21 03:16:35;;;;;;;;;6.00;6.00;;;;;20.23;100.00;101367.03;5121995;27;45386;-69
2021/08/21 03:19:00;;;;;;;;;4.50;4.50;;;;;20.26;100.00;101372.22;5121622;27;45429;-69
2021/08/21 03:24:47;;;;;;;;;5.50;5.50;;;;;20.18;100.00;101352.22;5121426;27;45334;-69
2021/08/21 03:27:13;;;;;;;;;6.00;5.00;;;;;20.18;100.00;101354.84;5121849;27;45345;-70
2021/08/21 03:29:38;;;;;;;;;4.25;4.25;;;;;20.15;100.00;101355.00;5121502;27;45593;-70
2021/08/21 03:32:03;;;;;;;;;6.75;5.00;;;;;20.15;100.00;101368.25;5121607;27;45436;-69
2021/08/21 03:34:29;;;;;;;;;6.00;6.00;;;;;20.07;100.00;101353.59;5121578;27;45346;-69
2021/08/21 03:36:55;;;;;;;;;4.25;4.00;;;;;20.09;100.00;101357.91;5121573;27;45333;-70
2021/08/21 03:39:21;;;;;;;;;5.00;4.50;;;;;19.98;100.00;101343.41;5121347;27;45593;-70
2021/08/21 03:41:46;;;;;;;;;5.00;5.00;;;;;20.04;100.00;101356.38;5121001;27;45342;-67
2021/08/21 03:44:12;;;;;;;;;5.00;5.00;;;;;19.89;100.00;101334.03;5121276;27;45414;-69
2021/08/21 03:46:38;;;;;;;;;5.00;4.75;;;;;19.97;100.00;101347.84;5121267;27;45439;-69
2021/08/21 03:49:03;;;;;;;;;5.00;5.00;;;;;19.95;100.00;101349.72;5120783;27;46625;-69
2021/08/21 03:54:52;;;;;;;;;4.00;4.00;;;;;19.88;100.00;101349.09;5120996;27;45333;-69
2021/08/21 03:57:17;;;;;;;;;5.00;4.25;;;;;19.84;100.00;101347.50;5121467;27;45322;-70
2021/08/21 03:59:43;;;;;;;;;5.25;5.25;;;;;19.82;100.00;101340.53;5120738;27;46138;-69
2021/08/21 04:02:08;;;;;;;;;5.25;5.00;;;;;19.78;100.00;101337.19;5120905;27;45420;-70
2021/08/21 04:04:33;;;;;;;;;4.00;3.50;;;;;19.77;100.00;101338.09;5120796;27;45213;-69
2021/08/21 04:06:59;;;;;;;;;6.00;5.00;;;;;19.68;100.00;101327.88;5120631;27;45290;-69
2021/08/21 04:09:24;;;;;;;;;5.00;4.50;;;;;19.66;100.00;101321.78;5120594;27;45271;-69
2021/08/21 04:11:49;;;;;;;;;5.75;5.00;;;;;19.69;100.00;101336.69;5120665;27;45300;-69
2021/08/21 04:14:15;;;;;;;;;6.00;5.50;;;;;19.65;100.00;101324.50;5120972;27;45271;-69
2021/08/21 04:16:40;;;;;;;;;5.25;5.25;;;;;19.58;100.00;101319.47;5121105;27;45310;-70
2021/08/21 04:19:06;;;;;;;;;4.75;4.00;;;;;19.62;100.00;101328.16;5102001;27;47296;-70
2021/08/21 04:24:53;;;;;;;;;6.00;5.50;;;;;19.55;100.00;101327.56;5120651;27;45445;-70
2021/08/21 04:27:18;;;;;;;;;7.25;6.00;;;;;19.52;100.00;101324.16;5120891;27;45206;-69
2021/08/21 04:29:44;;;;;;;;;6.00;5.00;;;;;19.53;100.00;101323.22;5120439;27;46340;-69
2021/08/21 04:32:09;;;;;;;;;5.50;5.50;;;;;19.52;100.00;101313.56;5120258;27;45226;-69
2021/08/21 04:34:35;;;;;;;;;6.00;6.00;;;;;19.50;100.00;101328.66;5120249;27;45306;-69
2021/08/21 04:37:04;;;;;;;;;7.00;6.50;;;;;19.50;100.00;101323.34;5120793;27;45409;-69
2021/08/21 04:39:30;;;;;;;;;6.50;5.50;;;;;19.45;100.00;101328.81;5120043;27;46786;-69
2021/08/21 04:41:55;;;;;;;;;7.50;6.00;;;;;19.41;100.00;101321.94;5120413;27;45318;-68
2021/08/21 04:44:21;;;;;;;;;4.50;4.50;;;;;19.41;100.00;101332.53;5120269;27;45397;-69
2021/08/21 04:46:46;;;;;;;;;6.50;6.25;;;;;19.28;100.00;101305.69;5120564;27;45392;-70
2021/08/21 04:49:11;;;;;;;;;5.25;4.25;;;;;19.35;100.00;101321.31;5119817;27;47103;-70
2021/08/21 04:55:01;;;;;;;;;5.00;5.00;;;;;19.41;100.00;101339.59;5120146;27;45355;-69
2021/08/21 04:57:26;;;;;;;;;5.50;5.50;;;;;19.36;100.00;101328.34;5120013;27;45374;-69
2021/08/21 04:59:52;;;;;;;;;5.00;5.00;;;;;19.34;100.00;101323.13;5120124;27;45332;-70
2021/08/21 05:02:17;;;;;;;;;6.75;6.00;;;;;19.32;100.00;101324.09;5120053;27;45320;-69
2021/08/21 05:04:43;;;;;;;;;8.00;6.00;;;;;19.37;100.00;101330.94;5120259;27;45240;-69
2021/08/21 05:07:08;;;;;;;;;6.00;5.50;;;;;19.38;100.00;101335.31;5120200;27;45384;-69
2021/08/21 05:09:33;;;;;;;;;6.00;5.25;;;;;19.36;100.00;101338.94;5101067;27;46848;-69
2021/08/21 05:11:59;;;;;;;;;6.25;5.50;;;;;19.47;100.00;101349.97;5119627;27;45351;-69
2021/08/21 05:14:24;;;;;;;;;6.00;6.00;;;;;19.50;100.00;101342.75;5120023;27;45200;-69
2021/08/21 05:16:50;;;;;;;;;7.25;6.50;;;;;19.54;100.00;101343.50;5120199;27;45324;-69
2021/08/21 05:25:23;;;;;;;;;5.00;5.00;;;;;19.63;100.00;101335.16;5119621;27;45311;-69
2021/08/21 05:27:49;;;;;;;;;7.00;6.00;;;;;19.63;100.00;101329.88;5119835;27;45326;-69
2021/08/21 05:30:15;;;;;;;;;5.75;5.75;;;;;19.64;100.00;101328.94;5100825;27;46751;-70
2021/08/21 05:32:40;;;;;;;;;6.00;6.00;;;;;19.71;100.00;101340.16;5119569;27;45249;-69
2021/08/21 05:35:06;;;;;;;;;6.25;5.25;;;;;19.72;100.00;101342.75;5119634;27;45218;-69
2021/08/21 05:37:32;;;;;;;;;8.00;6.00;;;;;19.75;100.00;101334.66;5119880;27;45215;-69
2021/08/21 05:39:57;;;;;;;;;6.25;6.25;;;;;19.84;100.00;101344.00;5119204;27;46420;-68
2021/08/21 05:42:22;;;;;;;;;6.75;6.00;;;;;19.86;100.00;101343.00;5119558;27;45192;-69
2021/08/21 05:44:48;;;;;;;;;7.50;6.00;;;;;19.89;100.00;101350.81;5119203;27;45268;-69
2021/08/21 05:47:13;;;;;;;;;6.75;6.00;;;;;19.98;100.00;101348.72;5119330;27;45485;-70
2021/08/21 05:49:38;;;;;;;;;5.00;5.00;;;;;20.01;100.00;101348.56;5118895;27;46504;-69
2021/08/21 05:52:04;;;;;;;;;7.00;7.00;;;;;20.05;100.00;101344.84;5119267;27;45326;-69
2021/08/21 05:54:30;;;;;;;;;7.50;7.50;;;;;20.06;100.00;101342.13;5119231;27;45330;-69
2021/08/21 05:56:57;;;;;;;;;7.00;7.00;;;;;20.12;100.00;101344.50;5119454;27;45330;-69
2021/08/21 05:59:22;;;;;;;;;8.75;6.75;;;;;20.20;100.00;101349.47;5119281;27;45373;-69
2021/08/21 06:01:48;;;;;;;;;8.50;6.75;;;;;20.28;100.00;101347.34;5119326;27;45398;-69
2021/08/21 06:04:13;;;;;;;;;7.00;6.00;;;;;20.29;100.00;101342.91;5119268;27;45244;-69
2021/08/21 06:10:00;;;;;;;;;9.50;7.50;;;;;20.37;100.00;101341.63;5117456;27;45867;-68
2021/08/21 06:12:25;;;;;;;;;7.25;6.50;;;;;20.35;100.00;101329.34;5118758;27;45440;-69
2021/08/21 06:14:51;;;;;;;;;6.00;6.00;;;;;20.41;100.00;101339.75;5119058;27;45368;-70
2021/08/21 06:17:16;;;;;;;;;7.25;6.50;;;;;20.43;100.00;101337.88;5118937;27;45546;-69
2021/08/21 06:19:42;;;;;;;;;6.75;6.75;;;;;20.44;100.00;101335.16;5118531;27;47349;-69
2021/08/21 06:22:07;;;;;;;;;7.00;6.75;;;;;20.48;100.00;101344.69;5118604;27;45468;-70
2021/08/21 06:24:33;;;;;;;;;7.25;7.25;;;;;20.48;100.00;101339.38;5118789;27;45276;-70
2021/08/21 06:26:58;;;;;;;;;6.00;5.50;;;;;20.56;100.00;101340.81;5118798;27;45511;-69
2021/08/21 06:29:24;;;;;;;;;7.75;7.75;;;;;20.61;100.00;101344.13;5118774;27;46670;-69
2021/08/21 06:31:49;;;;;;;;;9.00;8.00;;;;;20.68;100.00;101345.56;5122393;27;45299;-69
2021/08/21 06:34:15;;;;;;;;;9.00;9.00;;;;;20.71;100.00;101332.16;5122300;27;45272;-69
2021/08/21 06:40:03;;;;;;;;;7.50;7.50;;;;;20.88;100.00;101331.34;5122113;27;45376;-69
2021/08/21 06:42:28;;;;;;;;;8.25;8.00;;;;;20.99;100.00;101334.34;5122338;27;45367;-68
2021/08/21 06:44:53;;;;;;;;;8.00;7.00;;;;;21.09;100.00;101344.47;5122563;27;45409;-69
2021/08/21 06:47:19;;;;;;;;;7.50;7.25;;;;;21.17;100.00;101345.88;5122617;27;45364;-70
2021/08/21 06:49:44;;;;;;;;;10.25;8.50;;;;;21.23;100.00;101332.28;5121952;27;46128;-69
2021/08/21 06:52:10;;;;;;;;;8.75;8.75;;;;;21.35;100.00;101334.38;5122257;27;45248;-69
2021/08/21 06:54:35;;;;;;;;;8.00;8.00;;;;;21.40;100.00;101324.38;5122417;27;45271;-69
2021/08/21 06:57:01;;;;;;;;;8.00;7.75;;;;;21.53;100.00;101324.66;5122153;27;45529;-70
2021/08/21 06:59:26;;;;;;;;;9.25;8.50;;;;;21.60;100.00;101320.72;5122037;27;45415;-69
2021/08/21 07:01:51;;;;;;;;;10.25;9.75;;;;;21.69;100.00;101326.41;5121788;27;45270;-70
2021/08/21 07:04:17;;;;;;;;;9.00;7.75;;;;;21.73;100.00;101315.63;5121916;27;45334;-69
2021/08/21 07:10:04;;;;;;;;;10.25;9.00;;;;;21.91;100.00;101318.19;5121355;27;45658;-69
2021/08/21 07:12:30;;;;;;;;;10.00;9.00;;;;;21.99;100.00;101323.13;5121557;27;45251;-69
2021/08/21 07:14:55;;;;;;;;;8.00;8.00;;;;;21.95;100.00;101316.22;5121995;27;45191;-70
2021/08/21 07:17:21;;;;;;;;;9.00;8.00;;;;;22.04;100.00;101318.47;5121754;27;45257;-70
2021/08/21 07:19:46;;;;;;;;;8.75;8.50;;;;;22.12;100.00;101318.03;5121541;27;45462;-69
2021/08/21 07:22:11;;;;;;;;;8.75;8.75;;;;;22.21;100.00;101318.44;5121546;27;45344;-69
2021/08/21 07:24:37;;;;;;;;;10.50;9.50;;;;;22.30;100.00;101327.72;5121943;27;45251;-70
2021/08/21 07:27:02;;;;;;;;;10.00;9.00;;;;;22.39;100.00;101326.34;5121881;27;45191;-69
2021/08/21 07:29:28;;;;;;;;;11.25;9.75;;;;;22.54;100.00;101330.84;5121418;27;46098;-70
2021/08/21 07:31:54;;;;;;;;;11.75;11.00;;;;;22.65;100.00;101327.59;5121604;27;45230;-70
2021/08/21 07:34:19;;;;;;;;;9.00;8.00;;;;;22.76;100.00;101338.50;5121416;27;45409;-70
2021/08/21 07:40:07;;;;;;;;;9.00;8.00;;;;;22.92;100.00;101345.59;5121030;27;45823;-69
2021/08/21 07:42:33;;;;;;;;;10.75;10.75;;;;;23.00;100.00;101339.81;5120868;27;45399;-70
2021/08/21 07:44:58;;;;;;;;;8.25;8.00;;;;;23.12;100.00;101339.13;5121116;27;45618;-70
2021/08/21 07:47:24;;;;;;;;;8.25;8.00;;;;;23.19;100.00;101334.31;5121079;27;45326;-69
2021/08/21 07:49:49;;;;;;;;;9.75;9.25;;;;;23.36;100.00;101342.19;5121180;27;45381;-70
2021/08/21 07:52:15;;;;;;;;;7.00;7.00;;;;;23.43;100.00;101329.38;5121192;27;45333;-70
2021/08/21 07:54:40;;;;;;;;;10.75;9.00;;;;;23.58;100.00;101325.84;5120999;27;45282;-70
2021/08/21 07:57:05;;;;;;;;;8.00;6.50;;;;;23.76;100.00;101343.41;5121079;27;45431;-70
2021/08/21 07:59:31;;;;;;;;;6.50;6.00;;;;;23.91;100.00;101343.44;5120681;27;46256;-70
2021/08/21 08:01:56;;;;;;;;;6.75;6.25;;;;;24.03;100.00;101332.88;5121172;27;45329;-70
2021/08/21 08:04:21;;;;;;;;;8.25;7.75;;;;;24.17;100.00;101326.69;5120784;27;45377;-70
2021/08/21 08:10:09;;;;;;;;;7.25;6.75;;;;;24.56;100.00;101333.19;5120165;27;45778;-68
2021/08/21 08:12:35;;;;;;;;;8.00;7.00;;;;;24.70;100.00;101331.38;5120584;27;45384;-68
2021/08/21 08:15:01;;;;;;;;;7.75;7.75;;;;;24.83;100.00;101328.75;5120930;27;45333;-69
2021/08/21 08:17:26;;;;;;;;;8.25;7.25;;;;;24.89;100.00;101317.66;5121045;27;45352;-69
2021/08/21 08:19:51;;;;;;;;;7.75;7.50;;;;;25.07;100.00;101321.00;5120330;27;46309;-69
2021/08/21 08:22:19;;;;;;;;;8.75;8.25;;;;;25.23;100.00;101319.03;5120631;27;45395;-69
2021/08/21 08:24:45;;;;;;;;;7.50;7.50;;;;;25.27;100.00;101312.50;5120431;27;45305;-69
2021/08/21 08:27:13;;;;;;;;;8.00;8.00;;;;;25.44;100.00;101319.41;5120583;27;45243;-69
2021/08/21 08:29:38;;;;;;;;;8.50;7.50;;;;;25.53;100.00;101310.75;5120172;27;47555;-69
2021/08/21 08:32:04;;;;;;;;;10.00;8.25;;;;;25.74;100.00;101316.50;5120143;27;45463;-69
2021/08/21 08:34:29;;;;;;;;;10.00;8.00;;;;;25.87;100.00;101312.03;5120535;27;45309;-69
2021/08/21 08:40:16;;;;;;;;;8.00;8.00;;;;;26.19;100.00;101309.78;5120025;27;45295;-69
2021/08/21 08:42:43;;;;;;;;;10.00;10.00;;;;;26.38;100.00;101319.22;5119965;27;45200;-70
2021/08/21 08:45:11;;;;;;;;;8.25;8.00;;;;;26.46;100.00;101312.31;5120447;27;45301;-70
2021/08/21 08:47:37;;;;;;;;;9.00;9.00;;;;;26.52;100.00;101311.06;5120166;27;45287;-69
2021/08/21 08:50:07;;;;;;;;;10.00;9.25;;;;;26.72;100.00;101328.38;5119743;27;45674;-70
2021/08/21 08:52:34;;;;;;;;;9.00;8.00;;;;;26.78;100.00;101327.91;5118715;27;45510;-70
2021/08/21 08:55:00;;;;;;;;;7.25;6.25;;;;;26.87;100.00;101327.22;5120139;27;45438;-70
2021/08/21 08:57:43;;;;;;;;;7.00;6.50;;;;;27.03;100.00;101330.53;5120163;27;45300;-70
2021/08/21 09:00:14;;;;;;;;;9.00;8.00;;;;;27.30;100.00;101341.03;5119828;27;47416;-70
2021/08/21 09:02:42;;;;;;;;;7.75;7.25;;;;;27.54;100.00;101341.00;5119582;27;45278;-68
2021/08/21 09:05:10;;;;;;;;;7.50;6.00;;;;;27.81;100.00;101342.56;5120093;27;45279;-70
2021/08/21 09:07:44;;;;;;;;;7.00;7.00;;;;;28.11;100.00;101334.00;5120324;27;45376;-69
2021/08/21 09:10:21;;;;;;;;;6.25;5.00;;;;;28.40;100.00;101323.66;5119392;27;46068;-70
2021/08/21 09:12:48;;;;;;;;;8.00;7.00;;;;;28.66;100.00;101331.31;5119811;27;45313;-70
2021/08/21 09:15:22;;;;;;;;;8.75;7.00;;;;;28.94;100.00;101329.09;5119644;27;45269;-69
2021/08/21 09:18:05;;;;;;;;;6.25;6.25;;;;;29.38;100.00;101338.00;5119576;27;45373;-69
2021/08/21 09:20:31;;;;;;;;;10.00;8.00;;;;;29.67;100.00;101335.59;5119309;27;45378;-69
2021/08/21 09:23:20;;;;;;;;;7.00;7.00;;;;;29.70;100.00;101338.88;5119310;27;45452;-68
2021/08/21 09:25:48;;;;;;;;;6.00;5.00;;;;;29.45;100.00;101321.25;5119513;27;45285;-68
2021/08/21 09:28:20;;;;;;;;;6.50;6.00;;;;;29.45;100.00;101340.09;5119491;27;45421;-68
2021/08/21 09:30:46;;;;;;;;;8.50;7.00;;;;;29.58;100.00;101343.44;5119187;27;46692;-69
2021/08/21 09:33:16;;;;;;;;;6.75;6.75;;;;;29.82;100.00;101320.78;5100816;27;45321;-69
2021/08/21 09:35:42;;;;;;;;;7.75;6.25;;;;;30.18;100.00;101322.16;5119365;27;45258;-69
2021/08/21 09:38:08;;;;;;;;;7.25;7.25;;;;;30.63;100.00;101325.34;5119822;27;45408;-69
2021/08/21 09:40:39;;;;;;;;;7.75;6.00;;;;;30.92;100.00;101316.47;5118971;27;47198;-69
2021/08/21 09:43:07;;;;;;;;;7.00;7.00;;;;;31.27;100.00;101319.53;5118870;27;45441;-69
2021/08/21 09:45:35;;;;;;;;;6.75;6.75;;;;;31.68;100.00;101314.78;5119112;27;45460;-69
2021/08/21 09:48:04;;;;;;;;;7.00;6.50;;;;;32.03;98.08;101302.53;5119387;27;45237;-69
2021/08/21 09:50:35;;;;;;;;;6.25;6.25;;;;;32.37;96.85;101306.41;5118675;27;47640;-69
2021/08/21 09:53:03;;;;;;;;;6.00;6.00;;;;;32.91;94.37;101299.28;5118823;27;45272;-69
2021/08/21 09:55:29;;;;;;;;;6.00;5.50;;;;;33.35;91.75;101302.09;5119310;27;45242;-69
2021/08/21 09:58:09;;;;;;;;;7.00;7.00;;;;;33.80;89.73;101299.22;5119432;27;45368;-69
2021/08/21 10:00:38;;;;;;;;;7.00;6.75;;;;;34.03;87.36;101296.88;5118693;27;47342;-69
2021/08/21 10:03:04;;;;;;;;;7.75;6.75;;;;;34.07;87.08;101303.66;5119033;27;45387;-69
2021/08/21 10:05:31;;;;;;;;;5.75;5.00;;;;;33.95;86.96;101304.94;5118869;27;45353;-69
2021/08/21 10:08:08;;;;;;;;;6.00;6.00;;;;;33.70;84.92;101296.59;5118965;27;45436;-69
2021/08/21 10:10:35;;;;;;;;;6.00;6.00;;;;;33.32;81.69;101305.97;5118344;27;46782;-69
2021/08/21 10:13:10;;;;;;;;;6.50;6.50;;;;;32.77;85.70;101303.31;5118730;27;45237;-68
2021/08/21 10:15:39;;;;;;;;;4.00;4.00;;;;;32.32;85.36;101303.28;5119038;27;45315;-70
2021/08/21 10:18:06;;;;;;;;;8.00;8.00;;;;;32.12;84.23;101307.03;5119005;27;45425;-69
2021/08/21 10:20:32;;;;;;;;;7.25;7.00;;;;;31.92;87.99;101307.13;5118856;27;46201;-68
2021/08/21 10:22:57;;;;;;;;;6.50;6.25;;;;;31.85;88.64;101311.38;5118975;27;45335;-69
2021/08/21 10:25:25;;;;;;;;;6.00;6.00;;;;;31.93;89.39;101306.13;5119030;27;45350;-68
2021/08/21 10:27:58;;;;;;;;;6.00;5.75;;;;;31.91;87.44;101302.72;5118676;27;45228;-68
2021/08/21 10:30:45;;;;;;;;;6.00;5.00;;;;;32.11;86.42;101289.97;5118753;27;46102;-68
2021/08/21 10:33:11;;;;;;;;;7.25;6.75;;;;;32.58;86.46;101295.31;5118381;27;45462;-69
2021/08/21 10:35:53;;;;;;;;;6.00;5.00;;;;;33.20;84.79;101299.91;5100078;27;45341;-69
2021/08/21 10:38:32;;;;;;;;;6.50;5.75;;;;;33.65;84.54;101293.53;5118527;27;45528;-69
2021/08/21 10:41:12;;;;;;;;;5.75;5.75;;;;;34.25;83.09;101288.16;5118548;27;45325;-68
2021/08/21 10:43:45;;;;;;;;;9.00;7.25;;;;;35.06;78.53;101289.47;5118605;27;45349;-69
2021/08/21 10:46:12;;;;;;;;;5.50;5.25;;;;;35.47;78.95;101290.34;5118658;27;45302;-70
2021/08/21 10:48:37;;;;;;;;;7.25;6.25;;;;;35.76;77.52;101298.84;5118641;27;45413;-69
2021/08/21 10:51:26;;;;;;;;;8.50;7.00;;;;;35.83;74.01;101299.88;5118515;27;46614;-69
2021/08/21 10:53:51;;;;;;;;;4.50;4.50;;;;;35.73;72.80;101298.31;5118158;27;45455;-69
2021/08/21 10:56:36;;;;;;;;;5.75;5.50;;;;;35.82;73.24;101286.41;5118296;27;45318;-69
2021/08/21 10:59:02;;;;;;;;;5.75;5.75;;;;;35.73;70.79;101288.28;5118311;27;45196;-68
2021/08/21 11:01:28;;;;;;;;;5.50;5.50;;;;;35.69;72.63;101292.38;5118272;27;45582;-68
2021/08/21 11:03:55;;;;;;;;;7.25;7.25;;;;;35.79;71.75;101293.06;5118102;27;45845;-69
2021/08/21 11:06:33;;;;;;;;;5.00;5.00;;;;;35.76;72.96;101287.09;5118466;27;45350;-69
2021/08/21 11:09:10;;;;;;;;;6.75;6.00;;;;;36.09;72.15;101285.19;5118288;27;45352;-68
2021/08/21 11:11:46;;;;;;;;;6.00;5.25;;;;;36.04;68.50;101287.56;5118149;27;45288;-69
2021/08/21 11:14:24;;;;;;;;;5.00;4.00;;;;;35.80;70.37;101288.47;5118204;27;45428;-68
2021/08/21 11:17:00;;;;;;;;;7.00;6.00;;;;;35.34;69.56;101293.59;5120043;27;45382;-68
2021/08/21 11:19:33;;;;;;;;;8.00;7.00;;;;;35.00;72.23;101296.41;5121858;27;45323;-67
2021/08/21 11:22:25;;;;;;;;;7.00;6.25;;;;;34.73;73.07;101291.25;5121564;27;45426;-68
2021/08/21 11:24:53;;;;;;;;;6.50;5.50;;;;;34.63;73.55;101288.69;5121292;27;45421;-68
2021/08/21 11:27:28;;;;;;;;;6.50;6.00;;;;;35.02;73.67;101288.94;5121422;27;45238;-68
2021/08/21 11:30:15;;;;;;;;;5.25;5.25;;;;;35.33;73.70;101294.59;5121893;27;45333;-68
2021/08/21 11:32:57;;;;;;;;;8.50;6.75;;;;;35.68;72.55;101292.53;5121117;27;46500;-68
2021/08/21 11:38:44;;;;;;;;;7.50;7.00;;;;;35.31;73.18;101291.19;5121256;27;45289;-69
2021/08/21 11:41:13;;;;;;;;;7.25;7.25;;;;;35.53;70.86;101297.81;5121589;27;45557;-70
2021/08/21 11:43:41;;;;;;;;;7.75;7.00;;;;;35.81;72.21;101296.44;5121256;27;46188;-68
2021/08/21 11:46:08;;;;;;;;;3.50;3.50;;;;;36.31;71.81;101287.16;5121215;27;45375;-68
2021/08/21 11:48:36;;;;;;;;;7.00;6.00;;;;;36.14;68.24;101290.94;5121105;27;45367;-69
2021/08/21 11:54:23;;;;;;;;;5.75;5.50;;;;;36.22;73.29;101287.34;5120930;27;45469;-68
2021/08/21 11:57:03;;;;;;;;;5.25;5.25;;;;;36.04;72.28;101285.72;5120822;27;45370;-69
2021/08/21 11:59:29;;;;;;;;;6.00;5.00;;;;;35.55;72.92;101296.66;5120832;27;45422;-68
2021/08/21 12:02:04;;;;;;;;;7.50;7.50;;;;;35.26;75.00;101294.41;5121068;27;45465;-68
2021/08/21 12:04:32;;;;;;;;;6.00;6.00;;;;;35.44;74.94;101286.13;5120425;27;45624;-68
2021/08/21 12:10:19;;;;;;;;;5.00;5.00;;;;;34.92;78.03;101280.97;5120470;27;45375;-68
2021/08/21 12:12:53;;;;;;;;;6.75;6.00;;;;;34.64;78.07;101287.69;5120779;27;45532;-68
2021/08/21 12:15:19;;;;;;;;;6.00;6.00;;;;;34.31;78.74;101290.22;5120761;27;45279;-69
2021/08/21 12:17:45;;;;;;;;;4.75;4.25;;;;;33.92;79.61;101280.88;5120773;27;45350;-69
2021/08/21 12:20:11;;;;;;;;;6.00;5.75;;;;;33.46;81.10;101296.44;5120839;27;45365;-69
2021/08/21 12:26:01;;;;;;;;;7.00;6.00;;;;;32.46;85.15;101278.47;5120175;27;45868;-67
2021/08/21 12:28:41;;;;;;;;;5.50;5.50;;;;;32.38;86.75;101280.25;5120533;27;45379;-68
2021/08/21 12:31:09;;;;;;;;;6.75;6.00;;;;;32.28;87.33;101274.84;5120286;27;45315;-68